sensor_id;sensor_type;location;lat;lon;timestamp;pressure;altitude;pressure_sealevel;temperature;humidity
9261;BME280;4667;42.726;23.252;2023-02-19T00:00:36;95509.81;;;8.16;nan
9261;BME280;4667;42.726;23.252;2023-02-19T00:03:23;95502.41;;;8.09;nan
9261;BME280;4667;42.726;23.252;2023-02-19T00:05:50;95501.25;;;8.10;nan
9261;BME280;4667;42.726;23.252;2023-02-19T00:14:59;95491.91;;;7.78;nan
9261;BME280;4667;42.726;23.252;2023-02-19T00:17:32;95493.75;;;7.97;nan
9261;BME280;4667;42.726;23.252;2023-02-19T00:20:15;95487.09;;;7.91;nan
9261;BME280;4667;42.726;23.252;2023-02-19T00:23:03;95491.34;;;7.92;nan
9261;BME280;4667;42.726;23.252;2023-02-19T00:25:36;95466.34;;;7.95;nan
9261;BME280;4667;42.726;23.252;2023-02-19T00:28:13;95472.88;;;7.94;nan
9261;BME280;4667;42.726;23.252;2023-02-19T00:31:05;95479.94;;;8.02;nan
9261;BME280;4667;42.726;23.252;2023-02-19T00:33:32;95484.13;;;7.99;nan
9261;BME280;4667;42.726;23.252;2023-02-19T00:35:59;95478.38;;;8.01;nan
9261;BME280;4667;42.726;23.252;2023-02-19T00:38:26;95479.25;;;7.82;nan
9261;BME280;4667;42.726;23.252;2023-02-19T00:40:53;95464.19;;;7.81;nan
9261;BME280;4667;42.726;23.252;2023-02-19T00:43:20;95470.34;;;7.78;nan
9261;BME280;4667;42.726;23.252;2023-02-19T00:45:46;95457.78;;;7.89;nan
9261;BME280;4667;42.726;23.252;2023-02-19T00:48:15;95445.50;;;7.92;nan
9261;BME280;4667;42.726;23.252;2023-02-19T00:50:42;95435.41;;;7.85;nan
9261;BME280;4667;42.726;23.252;2023-02-19T00:53:09;95441.03;;;7.76;nan
9261;BME280;4667;42.726;23.252;2023-02-19T00:55:36;95439.91;;;7.77;nan
9261;BME280;4667;42.726;23.252;2023-02-19T00:58:03;95445.75;;;7.83;nan
9261;BME280;4667;42.726;23.252;2023-02-19T01:00:29;95442.94;;;7.76;nan
9261;BME280;4667;42.726;23.252;2023-02-19T01:02:57;95445.84;;;7.64;nan
9261;BME280;4667;42.726;23.252;2023-02-19T01:05:26;95438.91;;;7.63;nan
9261;BME280;4667;42.726;23.252;2023-02-19T01:07:52;95446.69;;;7.68;nan
9261;BME280;4667;42.726;23.252;2023-02-19T01:10:19;95454.25;;;7.59;nan
9261;BME280;4667;42.726;23.252;2023-02-19T01:12:46;95455.34;;;7.54;nan
9261;BME280;4667;42.726;23.252;2023-02-19T01:15:13;95450.19;;;7.46;nan
9261;BME280;4667;42.726;23.252;2023-02-19T01:17:39;95448.09;;;7.35;nan
9261;BME280;4667;42.726;23.252;2023-02-19T01:20:07;95450.56;;;7.21;nan
9261;BME280;4667;42.726;23.252;2023-02-19T01:22:35;95438.91;;;7.14;nan
9261;BME280;4667;42.726;23.252;2023-02-19T01:25:02;95446.06;;;7.06;nan
9261;BME280;4667;42.726;23.252;2023-02-19T01:27:29;95447.97;;;7.06;nan
9261;BME280;4667;42.726;23.252;2023-02-19T01:29:55;95457.06;;;6.97;nan
9261;BME280;4667;42.726;23.252;2023-02-19T01:32:22;95457.50;;;7.00;nan
9261;BME280;4667;42.726;23.252;2023-02-19T01:34:49;95459.53;;;7.06;nan
9261;BME280;4667;42.726;23.252;2023-02-19T01:37:15;95460.78;;;7.12;nan
9261;BME280;4667;42.726;23.252;2023-02-19T01:39:44;95463.50;;;7.12;nan
9261;BME280;4667;42.726;23.252;2023-02-19T01:42:12;95480.28;;;7.06;nan
9261;BME280;4667;42.726;23.252;2023-02-19T01:47:40;95482.50;;;7.00;nan
9261;BME280;4667;42.726;23.252;2023-02-19T01:50:06;95483.31;;;6.81;nan
9261;BME280;4667;42.726;23.252;2023-02-19T01:52:35;95480.13;;;6.95;nan
9261;BME280;4667;42.726;23.252;2023-02-19T01:55:06;95483.00;;;7.06;nan
9261;BME280;4667;42.726;23.252;2023-02-19T01:57:40;95468.88;;;7.12;nan
9261;BME280;4667;42.726;23.252;2023-02-19T02:00:11;95467.28;;;7.30;nan
9261;BME280;4667;42.726;23.252;2023-02-19T02:02:42;95472.47;;;7.43;nan
9261;BME280;4667;42.726;23.252;2023-02-19T02:05:17;95474.53;;;7.75;nan
9261;BME280;4667;42.726;23.252;2023-02-19T02:07:46;95484.19;;;8.03;nan
9261;BME280;4667;42.726;23.252;2023-02-19T02:10:31;95481.00;;;8.24;nan
9261;BME280;4667;42.726;23.252;2023-02-19T02:12:57;95482.38;;;8.37;nan
9261;BME280;4667;42.726;23.252;2023-02-19T02:15:27;95479.31;;;8.38;nan
9261;BME280;4667;42.726;23.252;2023-02-19T02:17:56;95484.13;;;8.26;nan
9261;BME280;4667;42.726;23.252;2023-02-19T02:20:53;95479.09;;;8.24;nan
9261;BME280;4667;42.726;23.252;2023-02-19T02:24:15;95482.06;;;8.15;nan
9261;BME280;4667;42.726;23.252;2023-02-19T02:27:10;95483.53;;;8.09;nan
9261;BME280;4667;42.726;23.252;2023-02-19T02:33:06;95494.56;;;7.29;nan
9261;BME280;4667;42.726;23.252;2023-02-19T02:35:43;95483.91;;;7.13;nan
9261;BME280;4667;42.726;23.252;2023-02-19T02:38:12;95491.50;;;7.30;nan
9261;BME280;4667;42.726;23.252;2023-02-19T02:40:42;95494.03;;;7.20;nan
9261;BME280;4667;42.726;23.252;2023-02-19T02:43:10;95502.81;;;7.17;nan
9261;BME280;4667;42.726;23.252;2023-02-19T02:45:37;95494.84;;;7.24;nan
9261;BME280;4667;42.726;23.252;2023-02-19T02:48:17;95500.19;;;7.20;nan
9261;BME280;4667;42.726;23.252;2023-02-19T02:50:49;95497.44;;;7.17;nan
9261;BME280;4667;42.726;23.252;2023-02-19T02:53:20;95499.03;;;7.21;nan
9261;BME280;4667;42.726;23.252;2023-02-19T02:56:07;95505.16;;;7.18;nan
9261;BME280;4667;42.726;23.252;2023-02-19T02:58:35;95501.81;;;7.25;nan
9261;BME280;4667;42.726;23.252;2023-02-19T03:01:06;95505.69;;;7.27;nan
9261;BME280;4667;42.726;23.252;2023-02-19T03:03:58;95504.72;;;7.16;nan
9261;BME280;4667;42.726;23.252;2023-02-19T03:06:30;95508.28;;;7.20;nan
9261;BME280;4667;42.726;23.252;2023-02-19T03:09:03;95513.53;;;7.13;nan
9261;BME280;4667;42.726;23.252;2023-02-19T03:11:34;95517.22;;;7.05;nan
9261;BME280;4667;42.726;23.252;2023-02-19T03:14:29;95521.78;;;7.01;nan
9261;BME280;4667;42.726;23.252;2023-02-19T03:17:18;95515.69;;;6.85;nan
9261;BME280;4667;42.726;23.252;2023-02-19T03:20:08;95524.97;;;6.68;nan
9261;BME280;4667;42.726;23.252;2023-02-19T03:22:37;95520.78;;;6.71;nan
9261;BME280;4667;42.726;23.252;2023-02-19T03:25:09;95521.00;;;6.62;nan
9261;BME280;4667;42.726;23.252;2023-02-19T03:27:55;95534.88;;;6.64;nan
9261;BME280;4667;42.726;23.252;2023-02-19T03:30:27;95530.06;;;6.54;nan
9261;BME280;4667;42.726;23.252;2023-02-19T03:32:57;95541.88;;;6.30;nan
9261;BME280;4667;42.726;23.252;2023-02-19T03:35:29;95543.88;;;6.18;nan
9261;BME280;4667;42.726;23.252;2023-02-19T03:38:01;95538.75;;;6.28;nan
9261;BME280;4667;42.726;23.252;2023-02-19T03:40:34;95537.59;;;6.29;nan
9261;BME280;4667;42.726;23.252;2023-02-19T03:43:11;95545.34;;;6.15;nan
9261;BME280;4667;42.726;23.252;2023-02-19T03:45:46;95554.31;;;6.19;nan
9261;BME280;4667;42.726;23.252;2023-02-19T03:48:24;95547.69;;;6.17;nan
9261;BME280;4667;42.726;23.252;2023-02-19T03:51:02;95560.47;;;6.39;nan
9261;BME280;4667;42.726;23.252;2023-02-19T03:53:34;95560.03;;;6.52;nan
9261;BME280;4667;42.726;23.252;2023-02-19T03:56:07;95565.63;;;6.63;nan
9261;BME280;4667;42.726;23.252;2023-02-19T03:58:43;95560.53;;;6.58;nan
9261;BME280;4667;42.726;23.252;2023-02-19T04:01:16;95557.13;;;6.61;nan
9261;BME280;4667;42.726;23.252;2023-02-19T04:03:49;95559.59;;;6.70;nan
9261;BME280;4667;42.726;23.252;2023-02-19T04:06:25;95570.53;;;6.77;nan
9261;BME280;4667;42.726;23.252;2023-02-19T04:08:54;95561.47;;;6.85;nan
9261;BME280;4667;42.726;23.252;2023-02-19T04:11:22;95561.38;;;6.81;nan
9261;BME280;4667;42.726;23.252;2023-02-19T04:13:54;95555.34;;;6.69;nan
9261;BME280;4667;42.726;23.252;2023-02-19T04:16:25;95566.56;;;6.71;nan
9261;BME280;4667;42.726;23.252;2023-02-19T04:18:57;95562.81;;;6.94;nan
9261;BME280;4667;42.726;23.252;2023-02-19T04:21:28;95570.25;;;6.82;nan
9261;BME280;4667;42.726;23.252;2023-02-19T04:23:58;95578.31;;;7.01;nan
9261;BME280;4667;42.726;23.252;2023-02-19T04:26:27;95561.53;;;7.08;nan
9261;BME280;4667;42.726;23.252;2023-02-19T04:28:54;95570.75;;;7.07;nan
9261;BME280;4667;42.726;23.252;2023-02-19T04:31:22;95573.44;;;7.07;nan
9261;BME280;4667;42.726;23.252;2023-02-19T04:33:49;95573.44;;;7.07;nan
9261;BME280;4667;42.726;23.252;2023-02-19T04:36:16;95574.72;;;7.13;nan
9261;BME280;4667;42.726;23.252;2023-02-19T04:38:44;95580.00;;;7.09;nan
9261;BME280;4667;42.726;23.252;2023-02-19T04:41:11;95582.06;;;7.16;nan
9261;BME280;4667;42.726;23.252;2023-02-19T04:43:37;95585.97;;;7.18;nan
9261;BME280;4667;42.726;23.252;2023-02-19T04:46:07;95586.03;;;7.22;nan
9261;BME280;4667;42.726;23.252;2023-02-19T04:48:33;95591.69;;;7.36;nan
9261;BME280;4667;42.726;23.252;2023-02-19T04:51:04;95590.78;;;7.28;nan
9261;BME280;4667;42.726;23.252;2023-02-19T04:53:31;95595.47;;;7.31;nan
9261;BME280;4667;42.726;23.252;2023-02-19T04:56:06;95596.41;;;7.20;nan
9261;BME280;4667;42.726;23.252;2023-02-19T04:58:33;95590.47;;;7.33;nan
9261;BME280;4667;42.726;23.252;2023-02-19T05:01:00;95590.47;;;7.33;nan
9261;BME280;4667;42.726;23.252;2023-02-19T05:03:27;95592.28;;;7.26;nan
9261;BME280;4667;42.726;23.252;2023-02-19T05:05:54;95590.63;;;7.21;nan
9261;BME280;4667;42.726;23.252;2023-02-19T05:08:22;95601.56;;;7.28;nan
9261;BME280;4667;42.726;23.252;2023-02-19T05:10:49;95603.69;;;7.38;nan
9261;BME280;4667;42.726;23.252;2023-02-19T05:13:18;95601.97;;;7.50;nan
9261;BME280;4667;42.726;23.252;2023-02-19T05:15:53;95605.00;;;7.48;nan
9261;BME280;4667;42.726;23.252;2023-02-19T05:18:20;95599.84;;;7.39;nan
9261;BME280;4667;42.726;23.252;2023-02-19T05:20:47;95602.38;;;7.52;nan
9261;BME280;4667;42.726;23.252;2023-02-19T05:23:14;95599.75;;;7.55;nan
9261;BME280;4667;42.726;23.252;2023-02-19T05:25:41;95600.25;;;7.42;nan
9261;BME280;4667;42.726;23.252;2023-02-19T05:28:08;95598.69;;;7.41;nan
9261;BME280;4667;42.726;23.252;2023-02-19T05:30:46;95589.53;;;7.45;nan
9261;BME280;4667;42.726;23.252;2023-02-19T05:33:27;95601.81;;;7.62;nan
9261;BME280;4667;42.726;23.252;2023-02-19T05:35:54;95599.81;;;7.82;nan
9261;BME280;4667;42.726;23.252;2023-02-19T05:38:22;95595.19;;;7.82;nan
9261;BME280;4667;42.726;23.252;2023-02-19T05:40:49;95597.06;;;8.01;nan
9261;BME280;4667;42.726;23.252;2023-02-19T05:43:16;95597.66;;;8.13;nan
9261;BME280;4667;42.726;23.252;2023-02-19T05:45:45;95607.19;;;8.07;nan
9261;BME280;4667;42.726;23.252;2023-02-19T05:48:11;95601.72;;;8.27;nan
9261;BME280;4667;42.726;23.252;2023-02-19T05:50:38;95610.84;;;8.18;nan
9261;BME280;4667;42.726;23.252;2023-02-19T05:53:05;95606.72;;;8.02;nan
9261;BME280;4667;42.726;23.252;2023-02-19T05:55:34;95615.25;;;8.04;nan
9261;BME280;4667;42.726;23.252;2023-02-19T05:58:01;95620.50;;;8.19;nan
9261;BME280;4667;42.726;23.252;2023-02-19T06:00:29;95625.47;;;8.17;nan
9261;BME280;4667;42.726;23.252;2023-02-19T06:02:57;95635.00;;;8.11;nan
9261;BME280;4667;42.726;23.252;2023-02-19T06:05:24;95639.69;;;8.14;nan
9261;BME280;4667;42.726;23.252;2023-02-19T06:07:50;95643.75;;;8.28;nan
9261;BME280;4667;42.726;23.252;2023-02-19T06:10:17;95646.19;;;8.33;nan
9261;BME280;4667;42.726;23.252;2023-02-19T06:12:44;95644.00;;;8.19;nan
9261;BME280;4667;42.726;23.252;2023-02-19T06:15:11;95654.19;;;8.29;nan
9261;BME280;4667;42.726;23.252;2023-02-19T06:17:38;95653.50;;;8.32;nan
9261;BME280;4667;42.726;23.252;2023-02-19T06:20:07;95645.88;;;8.38;nan
9261;BME280;4667;42.726;23.252;2023-02-19T06:22:34;95648.94;;;8.36;nan
9261;BME280;4667;42.726;23.252;2023-02-19T06:25:01;95653.34;;;8.48;nan
9261;BME280;4667;42.726;23.252;2023-02-19T06:27:28;95652.94;;;8.46;nan
9261;BME280;4667;42.726;23.252;2023-02-19T06:29:54;95647.94;;;8.48;nan
9261;BME280;4667;42.726;23.252;2023-02-19T06:32:21;95648.19;;;8.62;nan
9261;BME280;4667;42.726;23.252;2023-02-19T06:34:48;95659.47;;;8.71;nan
9261;BME280;4667;42.726;23.252;2023-02-19T06:37:18;95651.94;;;8.84;nan
9261;BME280;4667;42.726;23.252;2023-02-19T06:39:48;95659.16;;;9.02;nan
9261;BME280;4667;42.726;23.252;2023-02-19T06:42:15;95665.34;;;9.03;nan
9261;BME280;4667;42.726;23.252;2023-02-19T06:44:42;95662.06;;;9.17;nan
9261;BME280;4667;42.726;23.252;2023-02-19T06:47:09;95662.84;;;9.17;nan
9261;BME280;4667;42.726;23.252;2023-02-19T06:49:37;95667.69;;;9.34;nan
9261;BME280;4667;42.726;23.252;2023-02-19T06:52:06;95664.66;;;9.39;nan
9261;BME280;4667;42.726;23.252;2023-02-19T06:54:34;95666.75;;;9.53;nan
9261;BME280;4667;42.726;23.252;2023-02-19T06:57:01;95669.66;;;9.71;nan
9261;BME280;4667;42.726;23.252;2023-02-19T06:59:28;95669.84;;;9.55;nan
9261;BME280;4667;42.726;23.252;2023-02-19T07:01:55;95672.28;;;9.64;nan
9261;BME280;4667;42.726;23.252;2023-02-19T07:04:22;95673.19;;;9.78;nan
9261;BME280;4667;42.726;23.252;2023-02-19T07:06:49;95666.69;;;9.83;nan
9261;BME280;4667;42.726;23.252;2023-02-19T07:09:17;95658.00;;;10.04;nan
9261;BME280;4667;42.726;23.252;2023-02-19T07:11:45;95670.47;;;10.15;nan
9261;BME280;4667;42.726;23.252;2023-02-19T07:14:14;95668.25;;;10.21;nan
9261;BME280;4667;42.726;23.252;2023-02-19T07:16:43;95663.34;;;10.37;nan
9261;BME280;4667;42.726;23.252;2023-02-19T07:19:12;95663.03;;;10.46;nan
9261;BME280;4667;42.726;23.252;2023-02-19T07:21:39;95649.94;;;10.55;nan
9261;BME280;4667;42.726;23.252;2023-02-19T07:24:07;95640.38;;;10.68;nan
9261;BME280;4667;42.726;23.252;2023-02-19T07:26:34;95651.53;;;11.21;nan
9261;BME280;4667;42.726;23.252;2023-02-19T07:29:03;95653.69;;;11.74;nan
9261;BME280;4667;42.726;23.252;2023-02-19T07:31:30;95641.00;;;12.20;nan
9261;BME280;4667;42.726;23.252;2023-02-19T07:33:58;95632.84;;;12.66;nan
9261;BME280;4667;42.726;23.252;2023-02-19T07:36:26;95640.50;;;13.39;nan
9261;BME280;4667;42.726;23.252;2023-02-19T07:38:53;95629.75;;;13.87;nan
9261;BME280;4667;42.726;23.252;2023-02-19T07:41:21;95627.50;;;14.37;nan
9261;BME280;4667;42.726;23.252;2023-02-19T07:43:49;95632.75;;;14.65;nan
9261;BME280;4667;42.726;23.252;2023-02-19T07:46:17;95626.00;;;15.15;nan
9261;BME280;4667;42.726;23.252;2023-02-19T07:48:45;95611.59;;;15.14;nan
9261;BME280;4667;42.726;23.252;2023-02-19T07:51:14;95620.88;;;15.58;nan
9261;BME280;4667;42.726;23.252;2023-02-19T07:53:43;95623.59;;;15.88;nan
9261;BME280;4667;42.726;23.252;2023-02-19T07:56:11;95618.22;;;15.81;nan
9261;BME280;4667;42.726;23.252;2023-02-19T07:58:39;95613.59;;;16.05;nan
9261;BME280;4667;42.726;23.252;2023-02-19T08:01:13;95616.91;;;16.19;nan
9261;BME280;4667;42.726;23.252;2023-02-19T08:03:45;95609.59;;;16.63;nan
9261;BME280;4667;42.726;23.252;2023-02-19T08:06:11;95619.13;;;16.78;nan
9261;BME280;4667;42.726;23.252;2023-02-19T08:08:38;95614.72;;;16.84;nan
9261;BME280;4667;42.726;23.252;2023-02-19T08:11:06;95609.75;;;17.62;nan
9261;BME280;4667;42.726;23.252;2023-02-19T08:13:51;95611.84;;;18.10;nan
9261;BME280;4667;42.726;23.252;2023-02-19T08:16:19;95615.22;;;18.33;nan
9261;BME280;4667;42.726;23.252;2023-02-19T08:18:48;95610.03;;;18.55;nan
9261;BME280;4667;42.726;23.252;2023-02-19T08:21:17;95604.25;;;18.50;nan
9261;BME280;4667;42.726;23.252;2023-02-19T08:23:45;95610.66;;;18.27;nan
9261;BME280;4667;42.726;23.252;2023-02-19T08:26:13;95605.50;;;18.13;nan
9261;BME280;4667;42.726;23.252;2023-02-19T08:28:40;95609.84;;;18.62;nan
9261;BME280;4667;42.726;23.252;2023-02-19T08:31:10;95602.41;;;19.37;nan
9261;BME280;4667;42.726;23.252;2023-02-19T08:33:38;95597.44;;;19.32;nan
9261;BME280;4667;42.726;23.252;2023-02-19T08:36:10;95601.44;;;19.43;nan
9261;BME280;4667;42.726;23.252;2023-02-19T08:38:37;95593.25;;;19.27;nan
9261;BME280;4667;42.726;23.252;2023-02-19T08:41:06;95600.59;;;19.17;nan
9261;BME280;4667;42.726;23.252;2023-02-19T08:43:35;95594.00;;;18.70;nan
9261;BME280;4667;42.726;23.252;2023-02-19T08:46:02;95598.25;;;18.87;nan
9261;BME280;4667;42.726;23.252;2023-02-19T08:48:29;95602.19;;;18.86;nan
9261;BME280;4667;42.726;23.252;2023-02-19T08:50:58;95584.09;;;18.89;nan
9261;BME280;4667;42.726;23.252;2023-02-19T08:53:31;95588.34;;;19.06;nan
9261;BME280;4667;42.726;23.252;2023-02-19T08:56:03;95582.47;;;18.91;nan
9261;BME280;4667;42.726;23.252;2023-02-19T08:58:31;95576.41;;;18.67;nan
9261;BME280;4667;42.726;23.252;2023-02-19T09:00:58;95581.59;;;18.94;nan
9261;BME280;4667;42.726;23.252;2023-02-19T09:03:25;95577.59;;;18.66;nan
9261;BME280;4667;42.726;23.252;2023-02-19T09:05:52;95578.19;;;18.74;nan
9261;BME280;4667;42.726;23.252;2023-02-19T09:08:19;95569.41;;;18.95;nan
9261;BME280;4667;42.726;23.252;2023-02-19T09:11:00;95567.81;;;18.65;nan
9261;BME280;4667;42.726;23.252;2023-02-19T09:13:35;95559.59;;;18.65;nan
9261;BME280;4667;42.726;23.252;2023-02-19T09:16:02;95546.22;;;18.51;nan
9261;BME280;4667;42.726;23.252;2023-02-19T09:18:29;95557.50;;;18.53;nan
9261;BME280;4667;42.726;23.252;2023-02-19T09:20:58;95551.44;;;18.46;nan
9261;BME280;4667;42.726;23.252;2023-02-19T09:23:25;95564.22;;;18.68;nan
9261;BME280;4667;42.726;23.252;2023-02-19T09:25:57;95557.09;;;18.71;nan
9261;BME280;4667;42.726;23.252;2023-02-19T09:28:26;95550.94;;;18.96;nan
9261;BME280;4667;42.726;23.252;2023-02-19T09:30:53;95555.28;;;19.38;nan
9261;BME280;4667;42.726;23.252;2023-02-19T09:33:20;95555.91;;;19.59;nan
9261;BME280;4667;42.726;23.252;2023-02-19T09:35:49;95557.16;;;19.95;nan
9261;BME280;4667;42.726;23.252;2023-02-19T09:38:16;95542.44;;;19.89;nan
9261;BME280;4667;42.726;23.252;2023-02-19T09:40:44;95551.00;;;20.17;nan
9261;BME280;4667;42.726;23.252;2023-02-19T09:43:17;95540.50;;;20.50;nan
9261;BME280;4667;42.726;23.252;2023-02-19T09:45:45;95538.31;;;20.45;nan
9261;BME280;4667;42.726;23.252;2023-02-19T09:48:13;95553.53;;;20.11;nan
9261;BME280;4667;42.726;23.252;2023-02-19T09:50:44;95527.22;;;20.35;nan
9261;BME280;4667;42.726;23.252;2023-02-19T09:53:18;95528.81;;;20.71;nan
9261;BME280;4667;42.726;23.252;2023-02-19T09:55:51;95529.13;;;21.07;nan
9261;BME280;4667;42.726;23.252;2023-02-19T09:58:45;95527.63;;;20.59;nan
9261;BME280;4667;42.726;23.252;2023-02-19T10:01:13;95504.31;;;21.07;nan
9261;BME280;4667;42.726;23.252;2023-02-19T10:03:43;95502.47;;;21.48;nan
9261;BME280;4667;42.726;23.252;2023-02-19T10:06:15;95507.72;;;21.33;nan
9261;BME280;4667;42.726;23.252;2023-02-19T10:08:45;95496.97;;;21.57;nan
9261;BME280;4667;42.726;23.252;2023-02-19T10:11:15;95498.06;;;21.29;nan
9261;BME280;4667;42.726;23.252;2023-02-19T10:13:46;95474.22;;;21.13;nan
9261;BME280;4667;42.726;23.252;2023-02-19T10:16:18;95486.81;;;21.76;nan
9261;BME280;4667;42.726;23.252;2023-02-19T10:18:47;95485.16;;;21.78;nan
9261;BME280;4667;42.726;23.252;2023-02-19T10:21:19;95464.94;;;22.30;nan
9261;BME280;4667;42.726;23.252;2023-02-19T10:23:48;95462.41;;;22.72;nan
9261;BME280;4667;42.726;23.252;2023-02-19T10:26:21;95457.44;;;23.31;nan
9261;BME280;4667;42.726;23.252;2023-02-19T10:28:50;95460.38;;;23.28;nan
9261;BME280;4667;42.726;23.252;2023-02-19T10:31:20;95452.53;;;23.26;nan
9261;BME280;4667;42.726;23.252;2023-02-19T10:33:50;95440.81;;;23.58;nan
9261;BME280;4667;42.726;23.252;2023-02-19T10:36:26;95447.03;;;23.77;nan
9261;BME280;4667;42.726;23.252;2023-02-19T10:38:56;95436.84;;;24.16;nan
9261;BME280;4667;42.726;23.252;2023-02-19T10:41:25;95434.06;;;24.16;nan
9261;BME280;4667;42.726;23.252;2023-02-19T10:43:59;95422.13;;;24.10;nan
9261;BME280;4667;42.726;23.252;2023-02-19T10:46:31;95399.47;;;24.21;nan
9261;BME280;4667;42.726;23.252;2023-02-19T10:49:01;95404.38;;;24.64;nan
9261;BME280;4667;42.726;23.252;2023-02-19T10:51:33;95393.81;;;24.39;nan
9261;BME280;4667;42.726;23.252;2023-02-19T10:54:05;95394.94;;;24.71;nan
9261;BME280;4667;42.726;23.252;2023-02-19T10:56:33;95398.41;;;24.42;nan
9261;BME280;4667;42.726;23.252;2023-02-19T10:59:20;95382.84;;;24.21;nan
9261;BME280;4667;42.726;23.252;2023-02-19T11:01:58;95372.94;;;23.81;nan
9261;BME280;4667;42.726;23.252;2023-02-19T11:04:26;95382.59;;;23.53;nan
9261;BME280;4667;42.726;23.252;2023-02-19T11:06:54;95363.50;;;23.13;nan
9261;BME280;4667;42.726;23.252;2023-02-19T11:09:25;95364.00;;;23.02;nan
9261;BME280;4667;42.726;23.252;2023-02-19T11:11:55;95357.69;;;23.86;nan
9261;BME280;4667;42.726;23.252;2023-02-19T11:14:26;95355.47;;;23.66;nan
9261;BME280;4667;42.726;23.252;2023-02-19T11:16:55;95351.22;;;24.36;nan
9261;BME280;4667;42.726;23.252;2023-02-19T11:19:31;95339.94;;;24.40;nan
9261;BME280;4667;42.726;23.252;2023-02-19T11:22:01;95347.16;;;23.75;nan
9261;BME280;4667;42.726;23.252;2023-02-19T11:24:31;95328.66;;;23.81;nan
9261;BME280;4667;42.726;23.252;2023-02-19T11:27:00;95325.31;;;24.25;nan
9261;BME280;4667;42.726;23.252;2023-02-19T11:29:31;95320.66;;;24.46;nan
9261;BME280;4667;42.726;23.252;2023-02-19T11:32:21;95314.22;;;25.07;nan
9261;BME280;4667;42.726;23.252;2023-02-19T11:34:49;95309.06;;;25.65;nan
9261;BME280;4667;42.726;23.252;2023-02-19T11:37:17;95294.50;;;25.70;nan
9261;BME280;4667;42.726;23.252;2023-02-19T11:39:47;95296.50;;;25.69;nan
9261;BME280;4667;42.726;23.252;2023-02-19T11:42:29;95288.88;;;26.45;nan
9261;BME280;4667;42.726;23.252;2023-02-19T11:45:13;95287.00;;;26.36;nan
9261;BME280;4667;42.726;23.252;2023-02-19T11:51:05;95269.75;;;26.27;nan
9261;BME280;4667;42.726;23.252;2023-02-19T11:53:41;95273.28;;;25.67;nan
9261;BME280;4667;42.726;23.252;2023-02-19T11:56:14;95271.41;;;25.98;nan
9261;BME280;4667;42.726;23.252;2023-02-19T11:59:02;95274.16;;;25.58;nan
9261;BME280;4667;42.726;23.252;2023-02-19T12:10:44;95240.28;;;26.35;nan
9261;BME280;4667;42.726;23.252;2023-02-19T12:13:21;95239.13;;;25.81;nan
9261;BME280;4667;42.726;23.252;2023-02-19T12:15:59;95231.19;;;26.34;nan
9261;BME280;4667;42.726;23.252;2023-02-19T12:19:06;95233.22;;;25.93;nan
9261;BME280;4667;42.726;23.252;2023-02-19T12:21:47;95225.47;;;26.69;nan
9261;BME280;4667;42.726;23.252;2023-02-19T12:24:38;95216.41;;;26.74;nan
9261;BME280;4667;42.726;23.252;2023-02-19T12:27:18;95217.47;;;26.82;nan
9261;BME280;4667;42.726;23.252;2023-02-19T12:30:12;95209.75;;;26.66;nan
9261;BME280;4667;42.726;23.252;2023-02-19T12:32:52;95206.59;;;27.10;nan
9261;BME280;4667;42.726;23.252;2023-02-19T12:35:44;95198.16;;;26.99;nan
9261;BME280;4667;42.726;23.252;2023-02-19T12:38:21;95198.84;;;26.89;nan
9261;BME280;4667;42.726;23.252;2023-02-19T12:41:09;95189.06;;;26.41;nan
9261;BME280;4667;42.726;23.252;2023-02-19T12:43:40;95177.28;;;26.52;nan
9261;BME280;4667;42.726;23.252;2023-02-19T12:46:14;95171.53;;;26.30;nan
9261;BME280;4667;42.726;23.252;2023-02-19T12:48:49;95166.75;;;26.30;nan
9261;BME280;4667;42.726;23.252;2023-02-19T12:51:21;95166.28;;;26.32;nan
9261;BME280;4667;42.726;23.252;2023-02-19T12:53:53;95154.16;;;26.92;nan
9261;BME280;4667;42.726;23.252;2023-02-19T12:56:27;95148.97;;;27.11;nan
9261;BME280;4667;42.726;23.252;2023-02-19T12:58:57;95145.09;;;27.03;nan
9261;BME280;4667;42.726;23.252;2023-02-19T13:01:29;95144.31;;;26.97;nan
9261;BME280;4667;42.726;23.252;2023-02-19T13:04:11;95143.06;;;26.35;nan
9261;BME280;4667;42.726;23.252;2023-02-19T13:06:45;95135.84;;;26.23;nan
9261;BME280;4667;42.726;23.252;2023-02-19T13:09:21;95133.06;;;26.23;nan
9261;BME280;4667;42.726;23.252;2023-02-19T13:11:56;95121.34;;;25.82;nan
9261;BME280;4667;42.726;23.252;2023-02-19T13:14:28;95125.13;;;26.10;nan
9261;BME280;4667;42.726;23.252;2023-02-19T13:16:59;95119.53;;;26.30;nan
9261;BME280;4667;42.726;23.252;2023-02-19T13:19:27;95123.34;;;26.64;nan
9261;BME280;4667;42.726;23.252;2023-02-19T13:22:01;95115.03;;;27.07;nan
9261;BME280;4667;42.726;23.252;2023-02-19T13:24:49;95108.47;;;27.64;nan
9261;BME280;4667;42.726;23.252;2023-02-19T13:30:27;95090.34;;;27.20;nan
9261;BME280;4667;42.726;23.252;2023-02-19T13:33:04;95091.13;;;27.32;nan
9261;BME280;4667;42.726;23.252;2023-02-19T13:36:05;95076.34;;;27.63;nan
9261;BME280;4667;42.726;23.252;2023-02-19T13:38:37;95077.91;;;27.80;nan
9261;BME280;4667;42.726;23.252;2023-02-19T13:41:05;95076.63;;;27.76;nan
9261;BME280;4667;42.726;23.252;2023-02-19T13:43:43;95067.78;;;27.88;nan
9261;BME280;4667;42.726;23.252;2023-02-19T13:46:14;95063.47;;;27.82;nan
9261;BME280;4667;42.726;23.252;2023-02-19T13:48:42;95075.63;;;27.84;nan
9261;BME280;4667;42.726;23.252;2023-02-19T13:51:47;95066.78;;;27.86;nan
9261;BME280;4667;42.726;23.252;2023-02-19T13:54:25;95068.03;;;26.66;nan
9261;BME280;4667;42.726;23.252;2023-02-19T13:57:26;95060.03;;;26.79;nan
9261;BME280;4667;42.726;23.252;2023-02-19T13:59:56;95065.28;;;26.35;nan
9261;BME280;4667;42.726;23.252;2023-02-19T14:02:32;95051.16;;;25.09;nan
9261;BME280;4667;42.726;23.252;2023-02-19T14:05:05;95050.19;;;25.12;nan
9261;BME280;4667;42.726;23.252;2023-02-19T14:07:46;95047.25;;;24.81;nan
9261;BME280;4667;42.726;23.252;2023-02-19T14:13:57;95047.84;;;23.33;nan
9261;BME280;4667;42.726;23.252;2023-02-19T14:16:57;95045.00;;;23.27;nan
9261;BME280;4667;42.726;23.252;2023-02-19T14:19:47;95044.47;;;23.52;nan
9261;BME280;4667;42.726;23.252;2023-02-19T14:25:34;95037.66;;;23.39;nan
9261;BME280;4667;42.726;23.252;2023-02-19T14:28:11;95032.75;;;23.87;nan
9261;BME280;4667;42.726;23.252;2023-02-19T14:30:46;95035.59;;;23.92;nan
9261;BME280;4667;42.726;23.252;2023-02-19T14:33:17;95035.63;;;23.63;nan
9261;BME280;4667;42.726;23.252;2023-02-19T14:35:46;95035.22;;;23.85;nan
9261;BME280;4667;42.726;23.252;2023-02-19T14:38:17;95031.78;;;23.90;nan
9261;BME280;4667;42.726;23.252;2023-02-19T14:40:48;95030.47;;;23.71;nan